createdAt,value
2023-04-01T00:01:59.050Z,13.57
2023-04-01T00:04:25.667Z,13.65
2023-04-01T00:06:52.297Z,13.68
2023-04-01T00:09:18.861Z,13.23
2023-04-01T00:11:45.454Z,13.17
2023-04-01T00:14:11.990Z,13.39
2023-04-01T00:16:38.560Z,13.55
2023-04-01T00:19:05.170Z,13.52
2023-04-01T00:21:31.754Z,13.58
2023-04-01T00:23:58.394Z,13.48
2023-04-01T00:26:24.993Z,13.59
2023-04-01T00:28:51.619Z,13.72
2023-04-01T00:31:18.338Z,13.78
2023-04-01T00:33:45.065Z,13.74
2023-04-01T00:36:11.712Z,13.63
2023-04-01T00:38:38.304Z,13.59
2023-04-01T00:41:04.862Z,13.36
2023-04-01T00:43:31.456Z,13.35
2023-04-01T00:45:58.052Z,13.57
2023-04-01T00:48:24.634Z,13.54
2023-04-01T00:50:51.186Z,13.48
2023-04-01T00:53:17.780Z,13.45
2023-04-01T00:55:44.531Z,13.64
2023-04-01T00:58:11.133Z,13.57
2023-04-01T01:00:37.856Z,13.50
2023-04-01T01:03:04.565Z,13.42
2023-04-01T01:05:34.142Z,13.47
2023-04-01T01:08:02.388Z,13.50
2023-04-01T01:10:29.034Z,13.55
2023-04-01T01:12:55.603Z,13.50
2023-04-01T01:15:22.183Z,13.56
2023-04-01T01:17:48.885Z,13.51
2023-04-01T01:20:25.435Z,13.37
2023-04-01T01:22:53.312Z,13.02
2023-04-01T01:25:19.918Z,13.18
2023-04-01T01:27:46.504Z,13.11
2023-04-01T01:30:13.059Z,13.00
2023-04-01T01:32:39.742Z,12.86
2023-04-01T01:35:06.314Z,12.98
2023-04-01T01:37:32.905Z,12.67
2023-04-01T01:39:59.482Z,12.75
2023-04-01T01:42:26.150Z,12.31
2023-04-01T01:44:52.769Z,12.43
2023-04-01T01:47:19.702Z,12.76
2023-04-01T01:49:46.309Z,12.81
2023-04-01T01:52:12.883Z,12.86
2023-04-01T01:54:39.457Z,12.80
2023-04-01T01:57:06.021Z,12.85
2023-04-01T01:59:32.612Z,12.86
2023-04-01T02:01:59.395Z,12.64
2023-04-01T02:04:26.124Z,12.63
2023-04-01T02:06:52.696Z,12.50
2023-04-01T02:09:19.234Z,12.62
2023-04-01T02:11:45.823Z,12.84
2023-04-01T02:14:12.375Z,12.84
2023-04-01T02:16:38.930Z,12.62
2023-04-01T02:19:05.511Z,12.86
2023-04-01T02:21:32.086Z,12.67
2023-04-01T02:23:58.683Z,12.49
2023-04-01T02:26:25.230Z,12.53
2023-04-01T02:28:51.828Z,12.07
2023-04-01T02:31:18.559Z,11.73
2023-04-01T02:33:45.192Z,11.73
2023-04-01T02:36:11.768Z,11.82
2023-04-01T02:38:38.411Z,11.81
2023-04-01T02:41:04.978Z,12.04
2023-04-01T02:43:31.569Z,12.23
2023-04-01T02:45:58.161Z,12.61
2023-04-01T02:48:24.765Z,12.46
2023-04-01T02:50:51.316Z,12.61
2023-04-01T02:53:17.879Z,12.78
2023-04-01T02:55:44.460Z,12.74
2023-04-01T02:58:11.141Z,12.85
2023-04-01T03:00:37.684Z,12.51
2023-04-01T03:03:04.345Z,12.49
2023-04-01T03:05:31.357Z,12.11
2023-04-01T03:07:58.275Z,12.10
2023-04-01T03:10:24.870Z,12.49
2023-04-01T03:12:51.447Z,12.42
2023-04-01T03:15:18.027Z,12.12
2023-04-01T03:17:44.612Z,12.58
2023-04-01T03:20:11.234Z,12.51
2023-04-01T03:22:37.801Z,12.40
2023-04-01T03:25:04.392Z,12.61
2023-04-01T03:27:30.937Z,12.46
2023-04-01T03:29:57.639Z,12.24
2023-04-01T03:32:24.303Z,12.36
2023-04-01T03:34:50.869Z,12.37
2023-04-01T03:37:17.520Z,12.42
2023-04-01T03:39:44.729Z,12.40
2023-04-01T03:42:11.547Z,12.34
2023-04-01T03:44:38.086Z,12.42
2023-04-01T03:47:04.662Z,12.51
2023-04-01T03:49:31.542Z,12.48
2023-04-01T03:51:58.102Z,12.34
2023-04-01T03:54:24.689Z,12.36
2023-04-01T03:56:51.337Z,12.27
2023-04-01T03:59:17.986Z,12.40
2023-04-01T04:01:44.558Z,12.25
2023-04-01T04:04:11.159Z,12.55
2023-04-01T04:06:37.766Z,12.19
2023-04-01T04:09:04.336Z,11.99
2023-04-01T04:11:30.933Z,12.13
2023-04-01T04:13:58.378Z,12.40
2023-04-01T04:16:25.119Z,12.45
2023-04-01T04:18:51.705Z,12.48
2023-04-01T04:21:18.304Z,12.55
2023-04-01T04:23:44.858Z,12.55
2023-04-01T04:26:11.471Z,12.42
2023-04-01T04:28:38.031Z,12.48
2023-04-01T04:31:04.592Z,12.34
2023-04-01T04:33:31.217Z,12.37
2023-04-01T04:35:57.817Z,11.80
2023-04-01T04:38:24.442Z,12.09
2023-04-01T04:40:51.001Z,12.31
2023-04-01T04:43:17.569Z,12.34
2023-04-01T04:45:44.127Z,12.36
2023-04-01T04:48:10.709Z,12.38
2023-04-01T04:50:37.455Z,12.01
2023-04-01T04:53:04.017Z,12.05
2023-04-01T04:55:30.927Z,11.89
2023-04-01T04:57:57.737Z,11.72
2023-04-01T05:00:24.304Z,11.68
2023-04-01T05:02:50.966Z,11.67
2023-04-01T05:05:17.610Z,11.98
2023-04-01T05:07:44.174Z,11.94
2023-04-01T05:10:10.733Z,12.02
2023-04-01T05:12:37.303Z,12.14
2023-04-01T05:15:03.833Z,12.37
2023-04-01T05:17:30.704Z,12.37
2023-04-01T05:19:57.345Z,12.24
2023-04-01T05:22:23.885Z,12.30
2023-04-01T05:24:50.407Z,12.40
2023-04-01T05:27:16.969Z,12.44
2023-04-01T05:29:43.557Z,12.76
2023-04-01T05:32:10.138Z,12.76
2023-04-01T05:34:36.705Z,12.60
2023-04-01T05:37:03.358Z,12.53
2023-04-01T05:39:29.937Z,12.53
2023-04-01T05:41:56.617Z,12.84
2023-04-01T05:44:23.193Z,12.87
2023-04-01T05:46:49.802Z,12.46
2023-04-01T05:49:16.398Z,12.57
2023-04-01T05:51:42.985Z,12.39
2023-04-01T05:54:09.540Z,12.65
2023-04-01T05:56:36.175Z,12.69
2023-04-01T05:59:02.794Z,12.89
2023-04-01T06:01:29.394Z,12.96
2023-04-01T06:03:56.185Z,13.18
2023-04-01T06:06:22.848Z,13.24
2023-04-01T06:08:50.436Z,13.28
2023-04-01T06:11:17.008Z,13.14
2023-04-01T06:13:43.596Z,13.13
2023-04-01T06:16:10.204Z,13.44
2023-04-01T06:18:38.016Z,13.30
2023-04-01T06:21:04.652Z,13.54
2023-04-01T06:23:31.222Z,13.82
2023-04-01T06:25:57.780Z,13.99
2023-04-01T06:28:24.341Z,14.00
2023-04-01T06:30:51.026Z,14.12
2023-04-01T06:33:17.651Z,14.17
2023-04-01T06:35:44.354Z,14.39
2023-04-01T06:38:10.942Z,14.31
2023-04-01T06:40:37.543Z,14.11
2023-04-01T06:43:04.296Z,14.33
2023-04-01T06:45:30.995Z,14.14
2023-04-01T06:47:57.690Z,14.21
2023-04-01T06:50:24.450Z,14.40
2023-04-01T06:52:51.051Z,14.43
2023-04-01T06:55:17.876Z,14.62
2023-04-01T06:57:44.526Z,14.76
2023-04-01T07:00:11.260Z,14.60
2023-04-01T07:02:37.833Z,14.67
2023-04-01T07:05:04.475Z,14.99
2023-04-01T07:07:31.125Z,14.86
2023-04-01T07:09:57.791Z,15.13
2023-04-01T07:12:24.366Z,15.11
2023-04-01T07:14:50.983Z,15.39
2023-04-01T07:17:17.545Z,15.53
2023-04-01T07:19:44.210Z,15.61
2023-04-01T07:22:10.783Z,15.59
2023-04-01T07:24:37.323Z,15.92
2023-04-01T07:27:04.304Z,16.22
2023-04-01T07:29:31.030Z,16.22
2023-04-01T07:31:57.629Z,15.69
2023-04-01T07:34:24.220Z,15.51
2023-04-01T07:36:50.784Z,15.84
2023-04-01T07:39:17.362Z,16.23
2023-04-01T07:41:43.968Z,16.51
2023-04-01T07:44:10.552Z,16.57
2023-04-01T07:46:37.193Z,16.45
2023-04-01T07:49:03.837Z,16.93
2023-04-01T07:51:30.425Z,17.28
2023-04-01T07:53:56.971Z,17.58
2023-04-01T07:56:23.645Z,17.41
2023-04-01T07:58:50.481Z,17.09
2023-04-01T08:01:17.019Z,16.66
2023-04-01T08:03:43.736Z,17.58
2023-04-01T08:06:10.497Z,18.10
2023-04-01T08:08:37.128Z,18.31
2023-04-01T08:11:03.694Z,18.36
2023-04-01T08:13:30.343Z,18.04
2023-04-01T08:15:56.938Z,18.54
2023-04-01T08:18:23.484Z,18.76
2023-04-01T08:20:50.053Z,18.69
2023-04-01T08:23:16.604Z,18.76
2023-04-01T08:25:43.192Z,17.86
2023-04-01T08:28:09.750Z,18.21
2023-04-01T08:30:36.336Z,18.77
2023-04-01T08:33:02.938Z,18.14
2023-04-01T08:35:31.684Z,18.96
2023-04-01T08:37:58.965Z,19.08
2023-04-01T08:40:25.562Z,18.87
2023-04-01T08:42:52.134Z,18.30
2023-04-01T08:45:18.760Z,18.38
2023-04-01T08:47:45.360Z,18.56
2023-04-01T08:50:11.965Z,18.35
2023-04-01T08:52:38.600Z,18.76
2023-04-01T08:55:05.523Z,18.70
2023-04-01T08:57:32.153Z,19.09
2023-04-01T08:59:58.869Z,19.52
2023-04-01T09:02:25.545Z,19.37
2023-04-01T09:04:52.123Z,19.57
2023-04-01T09:07:19.121Z,19.78
2023-04-01T09:09:45.799Z,20.12
2023-04-01T09:12:12.414Z,20.23
2023-04-01T09:14:38.998Z,20.17
2023-04-01T09:17:05.545Z,20.19
2023-04-01T09:19:32.118Z,20.35
2023-04-01T09:21:58.681Z,20.43
2023-04-01T09:24:25.207Z,20.37
2023-04-01T09:26:51.792Z,20.58
2023-04-01T09:29:18.425Z,20.78
2023-04-01T09:31:45.145Z,20.91
2023-04-01T09:34:11.889Z,20.72
2023-04-01T09:36:38.481Z,19.94
2023-04-01T09:39:05.030Z,19.71
2023-04-01T09:41:31.594Z,20.07
2023-04-01T09:43:58.168Z,20.45
2023-04-01T09:46:24.861Z,21.11
2023-04-01T09:48:51.462Z,21.52
2023-04-01T09:51:18.152Z,21.59
2023-04-01T09:53:44.758Z,21.10
2023-04-01T09:56:11.313Z,21.10
2023-04-01T09:58:43.603Z,20.76
2023-04-01T10:01:10.770Z,20.79
2023-04-01T10:03:37.452Z,20.97
2023-04-01T10:06:04.057Z,20.64
2023-04-01T10:08:30.649Z,20.86
2023-04-01T10:10:57.357Z,20.54
2023-04-01T10:13:23.945Z,20.02
2023-04-01T10:15:50.504Z,20.46
2023-04-01T10:18:17.148Z,20.26
2023-04-01T10:20:43.757Z,20.41
2023-04-01T10:23:10.305Z,20.22
2023-04-01T10:25:36.912Z,20.35
2023-04-01T10:28:03.488Z,20.28
2023-04-01T10:30:32.359Z,20.81
2023-04-01T10:32:59.030Z,20.79
2023-04-01T10:35:25.747Z,20.89
2023-04-01T10:37:52.321Z,20.69
2023-04-01T10:40:18.943Z,21.10
2023-04-01T10:42:45.590Z,21.50
2023-04-01T10:45:12.165Z,21.34
2023-04-01T10:47:38.748Z,21.24
2023-04-01T10:50:05.358Z,21.31
2023-04-01T10:52:32.944Z,21.30
2023-04-01T10:54:59.530Z,21.43
2023-04-01T10:57:26.267Z,21.66
2023-04-01T10:59:52.937Z,21.76
2023-04-01T11:02:19.701Z,21.79
2023-04-01T11:04:46.326Z,21.47
2023-04-01T11:07:12.921Z,21.31
2023-04-01T11:09:39.805Z,21.57
2023-04-01T11:12:06.342Z,21.66
2023-04-01T11:14:32.943Z,21.96
2023-04-01T11:16:59.492Z,22.07
2023-04-01T11:19:26.208Z,21.66
2023-04-01T11:21:52.754Z,21.70
2023-04-01T11:24:19.318Z,22.10
2023-04-01T11:26:45.916Z,22.19
2023-04-01T11:29:12.466Z,21.78
2023-04-01T11:31:39.063Z,21.82
2023-04-01T11:34:05.662Z,21.95
2023-04-01T11:36:32.264Z,21.45
2023-04-01T11:38:58.955Z,21.15
2023-04-01T11:41:25.626Z,21.28
2023-04-01T11:43:52.242Z,21.38
2023-04-01T11:46:18.939Z,21.65
2023-04-01T11:48:45.963Z,21.56
2023-04-01T11:51:12.589Z,21.72
2023-04-01T11:53:39.214Z,21.21
2023-04-01T11:56:05.793Z,21.34
2023-04-01T11:58:32.356Z,21.05
2023-04-01T12:00:58.992Z,21.47
2023-04-01T12:03:25.723Z,21.94
2023-04-01T12:05:52.384Z,22.04
2023-04-01T12:08:18.967Z,21.57
2023-04-01T12:10:45.525Z,21.65
2023-04-01T12:13:12.092Z,21.87
2023-04-01T12:15:38.661Z,21.83
2023-04-01T12:18:05.299Z,22.22
2023-04-01T12:20:31.982Z,22.72
2023-04-01T12:22:58.581Z,22.76
2023-04-01T12:25:25.166Z,22.18
2023-04-01T12:27:52.408Z,22.11
2023-04-01T12:30:19.000Z,22.23
2023-04-01T12:32:45.629Z,21.69
2023-04-01T12:35:12.180Z,21.22
2023-04-01T12:37:38.847Z,21.79
2023-04-01T12:40:06.514Z,21.73
2023-04-01T12:42:33.105Z,22.13
2023-04-01T12:44:59.683Z,21.89
2023-04-01T12:47:26.231Z,21.97
2023-04-01T12:49:52.852Z,22.27
2023-04-01T12:52:19.486Z,22.26
2023-04-01T12:54:46.054Z,21.89
2023-04-01T12:57:12.670Z,22.18
2023-04-01T12:59:39.258Z,22.55
2023-04-01T13:02:05.818Z,22.89
2023-04-01T13:04:32.484Z,22.72
2023-04-01T13:06:59.054Z,22.44
2023-04-01T13:09:25.723Z,22.38
2023-04-01T13:11:52.274Z,22.40
2023-04-01T13:14:29.118Z,21.79
2023-04-01T13:16:58.226Z,22.09
2023-04-01T13:19:24.806Z,22.09
2023-04-01T13:21:51.393Z,22.29
2023-04-01T13:24:17.950Z,22.52
2023-04-01T13:26:44.565Z,22.74
2023-04-01T13:29:11.143Z,22.69
2023-04-01T13:31:37.813Z,22.69
2023-04-01T13:34:04.485Z,22.37
2023-04-01T13:36:31.062Z,22.52
2023-04-01T13:38:57.705Z,22.45
2023-04-01T13:41:24.265Z,22.44
2023-04-01T13:43:50.850Z,21.72
2023-04-01T13:46:17.566Z,22.00
2023-04-01T13:48:44.449Z,22.22
2023-04-01T13:51:11.038Z,22.77
2023-04-01T13:53:37.656Z,22.89
2023-04-01T13:56:04.301Z,22.85
2023-04-01T13:58:30.955Z,23.10
2023-04-01T14:00:57.595Z,22.99
2023-04-01T14:03:24.272Z,23.81
2023-04-01T14:05:50.925Z,23.91
2023-04-01T14:08:17.505Z,24.08
2023-04-01T14:10:44.040Z,23.93
2023-04-01T14:13:10.603Z,23.66
2023-04-01T14:15:37.182Z,24.06
2023-04-01T14:18:03.861Z,24.34
2023-04-01T14:20:30.729Z,24.18
2023-04-01T14:22:57.273Z,23.91
2023-04-01T14:25:23.876Z,24.09
2023-04-01T14:27:50.463Z,23.58
2023-04-01T14:30:17.031Z,23.69
2023-04-01T14:32:43.624Z,23.87
2023-04-01T14:35:10.207Z,24.29
2023-04-01T14:37:36.773Z,23.61
2023-04-01T14:40:03.417Z,23.75
2023-04-01T14:42:30.042Z,23.46
2023-04-01T14:44:57.161Z,23.08
2023-04-01T14:47:24.120Z,23.43
2023-04-01T14:49:50.666Z,23.57
2023-04-01T14:52:17.252Z,23.62
2023-04-01T14:54:43.839Z,23.24
2023-04-01T14:57:10.651Z,23.61
2023-04-01T14:59:37.237Z,23.97
2023-04-01T15:02:03.940Z,24.04
2023-04-01T15:04:30.617Z,23.77
2023-04-01T15:06:57.293Z,23.90
2023-04-01T15:09:23.888Z,24.17
2023-04-01T15:11:50.449Z,24.00
2023-04-01T15:14:17.026Z,23.91
2023-04-01T15:16:43.571Z,23.99
2023-04-01T15:19:10.178Z,23.78
2023-04-01T15:21:36.746Z,23.52
2023-04-01T15:24:03.297Z,23.65
2023-04-01T15:26:29.854Z,23.80
2023-04-01T15:28:56.383Z,23.16
2023-04-01T15:31:23.048Z,23.03
2023-04-01T15:33:49.869Z,23.06
2023-04-01T15:36:16.489Z,23.28
2023-04-01T15:38:43.084Z,22.94
2023-04-01T15:41:09.654Z,23.08
2023-04-01T15:43:36.244Z,23.15
2023-04-01T15:46:02.913Z,23.26
2023-04-01T15:48:29.525Z,22.95
2023-04-01T15:50:56.111Z,22.29
2023-04-01T15:53:22.684Z,22.48
2023-04-01T15:55:49.237Z,22.45
2023-04-01T15:58:15.877Z,21.98
2023-04-01T16:00:42.497Z,21.75
2023-04-01T16:03:09.157Z,21.94
2023-04-01T16:05:35.956Z,22.42
2023-04-01T16:08:02.542Z,22.53
2023-04-01T16:10:29.093Z,22.23
2023-04-01T16:12:55.682Z,22.34
2023-04-01T16:15:22.292Z,22.51
2023-04-01T16:17:48.915Z,22.34
2023-04-01T16:20:15.533Z,21.89
2023-04-01T16:22:42.198Z,21.50
2023-04-01T16:25:09.121Z,21.53
2023-04-01T16:30:19.721Z,21.14
2023-04-01T16:32:46.335Z,21.29
2023-04-01T16:35:12.966Z,21.22
2023-04-01T16:37:39.553Z,21.43
2023-04-01T16:40:06.110Z,21.32
2023-04-01T16:42:32.684Z,21.28
2023-04-01T16:44:59.295Z,21.16
2023-04-01T16:47:25.883Z,21.19
2023-04-01T16:49:52.448Z,21.14
2023-04-01T16:52:19.004Z,21.09
2023-04-01T16:54:45.567Z,21.11
2023-04-01T16:57:12.435Z,21.10
2023-04-01T16:59:39.028Z,20.92
2023-04-01T17:02:05.859Z,20.86
2023-04-01T17:04:32.446Z,20.85
2023-04-01T17:06:59.088Z,20.56
2023-04-01T17:09:25.647Z,20.38
2023-04-01T17:11:52.224Z,20.43
2023-04-01T17:14:18.782Z,20.53
2023-04-01T17:16:45.408Z,20.55
2023-04-01T17:19:11.970Z,20.53
2023-04-01T17:21:38.676Z,20.45
2023-04-01T17:24:05.278Z,20.36
2023-04-01T17:26:31.816Z,20.17
2023-04-01T17:28:58.368Z,20.02
2023-04-01T17:31:25.061Z,19.93
2023-04-01T17:33:51.667Z,20.04
2023-04-01T17:36:18.239Z,19.87
2023-04-01T17:38:44.839Z,19.82
2023-04-01T17:41:11.433Z,19.78
2023-04-01T17:43:38.081Z,19.81
2023-04-01T17:46:04.688Z,19.72
2023-04-01T17:48:31.217Z,19.61
2023-04-01T17:50:57.794Z,19.51
2023-04-01T17:53:24.338Z,19.57
2023-04-01T17:55:50.976Z,19.58
2023-04-01T17:58:17.561Z,19.50
2023-04-01T18:00:53.605Z,19.37
2023-04-01T18:03:21.117Z,19.08
2023-04-01T18:05:47.759Z,19.00
2023-04-01T18:08:14.321Z,19.03
2023-04-01T18:10:40.982Z,18.93
2023-04-01T18:13:07.833Z,18.82
2023-04-01T18:15:34.394Z,18.29
2023-04-01T18:18:01.112Z,18.70
2023-04-01T18:20:27.798Z,18.96
2023-04-01T18:22:54.497Z,19.06
2023-04-01T18:25:21.095Z,19.22
2023-04-01T18:27:47.672Z,19.01
2023-04-01T18:30:14.335Z,19.02
2023-04-01T18:32:40.927Z,19.03
2023-04-01T18:35:07.545Z,19.16
2023-04-01T18:37:34.083Z,19.09
2023-04-01T18:40:00.652Z,18.99
2023-04-01T18:42:27.226Z,18.85
2023-04-01T18:44:53.821Z,18.81
2023-04-01T18:47:20.377Z,18.86
2023-04-01T18:49:47.036Z,18.87
2023-04-01T18:52:13.617Z,18.87
2023-04-01T18:54:40.174Z,18.50
2023-04-01T18:57:06.796Z,18.57
2023-04-01T18:59:33.433Z,18.65
2023-04-01T19:02:00.028Z,18.59
2023-04-01T19:04:26.700Z,18.61
2023-04-01T19:06:53.249Z,18.53
2023-04-01T19:09:19.877Z,18.49
2023-04-01T19:11:46.496Z,18.38
2023-04-01T19:14:13.070Z,18.07
2023-04-01T19:16:39.643Z,18.08
2023-04-01T19:19:06.254Z,18.17
2023-04-01T19:21:32.808Z,18.35
2023-04-01T19:23:59.384Z,18.15
2023-04-01T19:26:25.924Z,18.19
2023-04-01T19:28:52.514Z,18.04
2023-04-01T19:31:19.156Z,17.87
2023-04-01T19:33:45.786Z,17.92
2023-04-01T19:36:12.425Z,17.86
2023-04-01T19:38:39.077Z,18.07
2023-04-01T19:41:05.689Z,18.15
2023-04-01T19:43:32.254Z,18.19
2023-04-01T19:45:58.884Z,18.21
2023-04-01T19:48:25.509Z,18.22
2023-04-01T19:50:52.123Z,18.23
2023-04-01T19:53:18.750Z,18.07
2023-04-01T19:55:45.272Z,18.03
2023-04-01T19:58:11.826Z,17.94
2023-04-01T20:00:38.393Z,17.96
2023-04-01T20:03:05.099Z,17.92
2023-04-01T20:05:31.840Z,17.96
2023-04-01T20:07:58.464Z,18.05
2023-04-01T20:10:25.041Z,17.88
2023-04-01T20:12:51.619Z,17.81
2023-04-01T20:15:18.240Z,17.86
2023-04-01T20:17:44.846Z,17.85
2023-04-01T20:20:11.502Z,17.59
2023-04-01T20:22:38.191Z,17.55
2023-04-01T20:25:04.746Z,17.43
2023-04-01T20:27:31.319Z,17.32
2023-04-01T20:29:57.855Z,17.29
2023-04-01T20:32:24.507Z,17.24
2023-04-01T20:34:51.285Z,17.14
2023-04-01T20:37:17.934Z,16.98
2023-04-01T20:39:44.610Z,17.18
2023-04-01T20:42:11.228Z,17.42
2023-04-01T20:44:37.872Z,17.32
2023-04-01T20:47:04.458Z,17.34
2023-04-01T20:49:31.164Z,17.29
2023-04-01T20:51:57.769Z,17.31
2023-04-01T20:54:24.354Z,17.31
2023-04-01T20:56:51.089Z,17.33
2023-04-01T20:59:17.697Z,17.37
2023-04-01T21:01:44.432Z,17.38
2023-04-01T21:04:11.603Z,17.23
2023-04-01T21:06:38.241Z,16.90
2023-04-01T21:09:04.860Z,16.79
2023-04-01T21:11:31.451Z,16.79
2023-04-01T21:13:59.292Z,16.87
2023-04-01T21:16:26.366Z,17.20
2023-04-01T21:18:53.112Z,17.07
2023-04-01T21:21:19.733Z,16.93
2023-04-01T21:23:46.300Z,16.89
2023-04-01T21:26:12.925Z,16.93
2023-04-01T21:28:39.567Z,16.97
2023-04-01T21:31:06.231Z,16.52
2023-04-01T21:33:32.864Z,16.37
2023-04-01T21:35:59.426Z,16.33
2023-04-01T21:38:26.222Z,16.45
2023-04-01T21:40:52.800Z,16.36
2023-04-01T21:43:19.410Z,16.20
2023-04-01T21:45:46.010Z,16.35
2023-04-01T21:48:12.639Z,16.45
2023-04-01T21:50:39.236Z,16.59
2023-04-01T21:53:05.802Z,16.59
2023-04-01T21:55:32.764Z,16.63
2023-04-01T21:57:59.540Z,16.62
2023-04-01T22:00:26.188Z,16.71
2023-04-01T22:02:52.838Z,16.69
2023-04-01T22:05:19.458Z,16.63
2023-04-01T22:07:46.039Z,16.64
2023-04-01T22:10:12.618Z,16.43
2023-04-01T22:12:39.262Z,16.46
2023-04-01T22:15:05.909Z,16.53
2023-04-01T22:17:32.526Z,16.58
2023-04-01T22:19:59.191Z,16.65
2023-04-01T22:22:25.807Z,16.40
2023-04-01T22:24:52.368Z,15.70
2023-04-01T22:27:18.919Z,15.80
2023-04-01T22:29:48.663Z,16.00
2023-04-01T22:32:15.363Z,16.04
2023-04-01T22:34:41.984Z,15.76
2023-04-01T22:37:08.642Z,15.81
2023-04-01T22:39:35.263Z,15.94
2023-04-01T22:42:01.984Z,15.94
2023-04-01T22:44:28.629Z,16.09
2023-04-01T22:46:55.256Z,15.94
2023-04-01T22:49:21.859Z,15.46
2023-04-01T22:51:48.531Z,15.73
2023-04-01T22:54:15.145Z,16.06
2023-04-01T22:56:41.717Z,16.11
2023-04-01T22:59:08.322Z,16.14
2023-04-01T23:01:34.960Z,15.66
2023-04-01T23:04:01.563Z,15.77
2023-04-01T23:06:28.159Z,15.70
2023-04-01T23:08:54.873Z,15.84
2023-04-01T23:11:21.454Z,15.99
2023-04-01T23:13:47.987Z,15.87
2023-04-01T23:16:14.589Z,15.74
2023-04-01T23:18:41.164Z,15.77
2023-04-01T23:21:07.829Z,15.76
2023-04-01T23:23:34.397Z,15.76
2023-04-01T23:26:01.018Z,15.74
2023-04-01T23:28:27.634Z,15.62
2023-04-01T23:30:54.289Z,15.58
2023-04-01T23:33:20.917Z,15.31
2023-04-01T23:35:47.574Z,15.33
2023-04-01T23:38:14.277Z,15.45
2023-04-01T23:40:41.059Z,15.38
2023-04-01T23:43:07.664Z,15.35
2023-04-01T23:45:34.376Z,15.08
2023-04-01T23:48:01.093Z,15.21
2023-04-01T23:50:27.789Z,15.14
2023-04-01T23:52:54.393Z,15.14
2023-04-01T23:55:21.012Z,15.10
2023-04-01T23:57:47.631Z,15.17
